sensor_id;sensor_type;location;lat;lon;timestamp;P1;durP1;ratioP1;P2;durP2;ratioP2
18677;SDS011;9469;51.114;13.914;2022-07-23T00:04:45;6.87;;;4.70;;
18677;SDS011;9469;51.114;13.914;2022-07-23T00:09:50;5.57;;;5.07;;
18677;SDS011;9469;51.114;13.914;2022-07-23T00:14:55;7.10;;;4.67;;
18677;SDS011;9469;51.114;13.914;2022-07-23T00:20:03;6.93;;;5.00;;
18677;SDS011;9469;51.114;13.914;2022-07-23T00:25:09;8.67;;;5.07;;
18677;SDS011;9469;51.114;13.914;2022-07-23T00:30:32;10.40;;;5.50;;
18677;SDS011;9469;51.114;13.914;2022-07-23T00:35:40;6.20;;;5.20;;
18677;SDS011;9469;51.114;13.914;2022-07-23T00:40:45;6.57;;;5.53;;
18677;SDS011;9469;51.114;13.914;2022-07-23T00:45:50;5.00;;;4.53;;
18677;SDS011;9469;51.114;13.914;2022-07-23T00:50:58;4.87;;;4.17;;
18677;SDS011;9469;51.114;13.914;2022-07-23T00:56:04;5.17;;;4.37;;
18677;SDS011;9469;51.114;13.914;2022-07-23T01:01:10;7.23;;;3.87;;
18677;SDS011;9469;51.114;13.914;2022-07-23T01:06:18;4.40;;;3.83;;
18677;SDS011;9469;51.114;13.914;2022-07-23T01:11:25;6.27;;;3.87;;
18677;SDS011;9469;51.114;13.914;2022-07-23T01:16:30;5.33;;;3.60;;
18677;SDS011;9469;51.114;13.914;2022-07-23T01:21:42;4.60;;;3.73;;
18677;SDS011;9469;51.114;13.914;2022-07-23T01:26:51;5.03;;;3.80;;
18677;SDS011;9469;51.114;13.914;2022-07-23T01:31:57;4.70;;;3.93;;
18677;SDS011;9469;51.114;13.914;2022-07-23T01:37:02;7.23;;;4.10;;
18677;SDS011;9469;51.114;13.914;2022-07-23T01:42:10;5.80;;;4.40;;
18677;SDS011;9469;51.114;13.914;2022-07-23T01:47:15;4.27;;;3.90;;
18677;SDS011;9469;51.114;13.914;2022-07-23T01:52:24;4.43;;;4.03;;
18677;SDS011;9469;51.114;13.914;2022-07-23T01:57:32;7.07;;;4.40;;
18677;SDS011;9469;51.114;13.914;2022-07-23T02:02:37;5.03;;;4.53;;
18677;SDS011;9469;51.114;13.914;2022-07-23T02:07:43;4.97;;;4.37;;
18677;SDS011;9469;51.114;13.914;2022-07-23T02:12:51;5.50;;;5.00;;
18677;SDS011;9469;51.114;13.914;2022-07-23T02:17:56;7.17;;;4.20;;
18677;SDS011;9469;51.114;13.914;2022-07-23T02:23:01;5.47;;;4.83;;
18677;SDS011;9469;51.114;13.914;2022-07-23T02:28:09;5.60;;;5.00;;
18677;SDS011;9469;51.114;13.914;2022-07-23T02:33:15;6.20;;;4.27;;
18677;SDS011;9469;51.114;13.914;2022-07-23T02:38:20;7.60;;;5.07;;
18677;SDS011;9469;51.114;13.914;2022-07-23T02:43:28;5.17;;;4.67;;
18677;SDS011;9469;51.114;13.914;2022-07-23T02:48:33;7.93;;;4.30;;
18677;SDS011;9469;51.114;13.914;2022-07-23T02:53:38;6.77;;;4.90;;
18677;SDS011;9469;51.114;13.914;2022-07-23T02:58:46;5.70;;;4.30;;
18677;SDS011;9469;51.114;13.914;2022-07-23T03:03:52;5.20;;;4.70;;
18677;SDS011;9469;51.114;13.914;2022-07-23T03:08:57;6.30;;;5.10;;
18677;SDS011;9469;51.114;13.914;2022-07-23T03:14:05;8.47;;;4.80;;
18677;SDS011;9469;51.114;13.914;2022-07-23T03:19:10;9.77;;;5.13;;
18677;SDS011;9469;51.114;13.914;2022-07-23T03:24:16;7.33;;;5.47;;
18677;SDS011;9469;51.114;13.914;2022-07-23T03:29:24;7.60;;;5.33;;
18677;SDS011;9469;51.114;13.914;2022-07-23T03:34:29;11.53;;;5.77;;
18677;SDS011;9469;51.114;13.914;2022-07-23T03:39:34;7.63;;;5.60;;
18677;SDS011;9469;51.114;13.914;2022-07-23T03:44:42;6.13;;;5.53;;
18677;SDS011;9469;51.114;13.914;2022-07-23T03:49:47;6.90;;;5.70;;
18677;SDS011;9469;51.114;13.914;2022-07-23T03:54:53;6.50;;;5.90;;
18677;SDS011;9469;51.114;13.914;2022-07-23T04:00:02;6.13;;;5.63;;
18677;SDS011;9469;51.114;13.914;2022-07-23T04:05:13;6.80;;;5.97;;
18677;SDS011;9469;51.114;13.914;2022-07-23T04:10:23;8.13;;;5.77;;
18677;SDS011;9469;51.114;13.914;2022-07-23T04:15:31;6.00;;;5.40;;
18677;SDS011;9469;51.114;13.914;2022-07-23T04:20:36;6.97;;;5.63;;
18677;SDS011;9469;51.114;13.914;2022-07-23T04:25:43;6.43;;;5.87;;
18677;SDS011;9469;51.114;13.914;2022-07-23T04:30:51;7.50;;;6.70;;
18677;SDS011;9469;51.114;13.914;2022-07-23T04:35:57;6.83;;;6.03;;
18677;SDS011;9469;51.114;13.914;2022-07-23T04:41:02;6.33;;;5.73;;
18677;SDS011;9469;51.114;13.914;2022-07-23T04:46:09;6.43;;;5.10;;
18677;SDS011;9469;51.114;13.914;2022-07-23T04:51:21;6.37;;;5.57;;
18677;SDS011;9469;51.114;13.914;2022-07-23T04:56:26;7.00;;;5.20;;
18677;SDS011;9469;51.114;13.914;2022-07-23T05:01:35;5.87;;;4.97;;
18677;SDS011;9469;51.114;13.914;2022-07-23T05:06:40;8.53;;;5.67;;
18677;SDS011;9469;51.114;13.914;2022-07-23T05:11:45;10.23;;;5.80;;
18677;SDS011;9469;51.114;13.914;2022-07-23T05:16:53;6.67;;;5.87;;
18677;SDS011;9469;51.114;13.914;2022-07-23T05:21:59;7.17;;;5.10;;
18677;SDS011;9469;51.114;13.914;2022-07-23T05:27:05;5.73;;;5.23;;
18677;SDS011;9469;51.114;13.914;2022-07-23T05:32:14;5.47;;;4.90;;
18677;SDS011;9469;51.114;13.914;2022-07-23T05:37:28;5.83;;;5.33;;
18677;SDS011;9469;51.114;13.914;2022-07-23T05:42:34;7.17;;;5.50;;
18677;SDS011;9469;51.114;13.914;2022-07-23T05:47:43;6.63;;;5.90;;
18677;SDS011;9469;51.114;13.914;2022-07-23T05:52:59;7.03;;;5.17;;
18677;SDS011;9469;51.114;13.914;2022-07-23T05:58:25;7.50;;;5.60;;
18677;SDS011;9469;51.114;13.914;2022-07-23T06:03:33;5.90;;;5.30;;
18677;SDS011;9469;51.114;13.914;2022-07-23T06:08:38;7.53;;;5.13;;
18677;SDS011;9469;51.114;13.914;2022-07-23T06:13:43;5.80;;;5.30;;
18677;SDS011;9469;51.114;13.914;2022-07-23T06:18:51;6.17;;;4.80;;
18677;SDS011;9469;51.114;13.914;2022-07-23T06:23:56;5.20;;;4.27;;
18677;SDS011;9469;51.114;13.914;2022-07-23T06:29:02;5.10;;;4.40;;
18677;SDS011;9469;51.114;13.914;2022-07-23T06:34:09;4.70;;;4.10;;
18677;SDS011;9469;51.114;13.914;2022-07-23T06:39:14;6.83;;;5.07;;
18677;SDS011;9469;51.114;13.914;2022-07-23T06:44:22;6.80;;;6.00;;
18677;SDS011;9469;51.114;13.914;2022-07-23T06:49:30;7.73;;;5.10;;
18677;SDS011;9469;51.114;13.914;2022-07-23T06:54:35;6.40;;;4.83;;
18677;SDS011;9469;51.114;13.914;2022-07-23T06:59:40;6.20;;;4.90;;
18677;SDS011;9469;51.114;13.914;2022-07-23T07:04:51;7.60;;;5.80;;
18677;SDS011;9469;51.114;13.914;2022-07-23T07:10:06;7.30;;;5.43;;
18677;SDS011;9469;51.114;13.914;2022-07-23T07:15:16;6.23;;;5.60;;
18677;SDS011;9469;51.114;13.914;2022-07-23T07:20:24;6.47;;;5.83;;
18677;SDS011;9469;51.114;13.914;2022-07-23T07:25:29;7.37;;;6.00;;
18677;SDS011;9469;51.114;13.914;2022-07-23T07:30:34;7.40;;;5.47;;
18677;SDS011;9469;51.114;13.914;2022-07-23T07:35:42;5.87;;;5.23;;
18677;SDS011;9469;51.114;13.914;2022-07-23T07:40:47;6.53;;;5.10;;
18677;SDS011;9469;51.114;13.914;2022-07-23T07:45:52;8.60;;;5.60;;
18677;SDS011;9469;51.114;13.914;2022-07-23T07:50:59;8.70;;;5.73;;
18677;SDS011;9469;51.114;13.914;2022-07-23T07:56:05;6.23;;;5.63;;
18677;SDS011;9469;51.114;13.914;2022-07-23T08:01:10;6.00;;;5.43;;
18677;SDS011;9469;51.114;13.914;2022-07-23T08:06:18;5.97;;;5.33;;
18677;SDS011;9469;51.114;13.914;2022-07-23T08:11:24;6.53;;;4.40;;
18677;SDS011;9469;51.114;13.914;2022-07-23T08:16:29;5.97;;;5.37;;
18677;SDS011;9469;51.114;13.914;2022-07-23T08:21:57;6.40;;;5.20;;
18677;SDS011;9469;51.114;13.914;2022-07-23T08:27:02;5.90;;;5.30;;
18677;SDS011;9469;51.114;13.914;2022-07-23T08:32:07;7.10;;;5.43;;
18677;SDS011;9469;51.114;13.914;2022-07-23T08:37:35;5.87;;;4.43;;
18677;SDS011;9469;51.114;13.914;2022-07-23T08:42:40;6.17;;;5.10;;
18677;SDS011;9469;51.114;13.914;2022-07-23T08:47:45;6.20;;;4.90;;
18677;SDS011;9469;51.114;13.914;2022-07-23T08:52:56;7.43;;;5.03;;
18677;SDS011;9469;51.114;13.914;2022-07-23T08:58:05;7.53;;;5.13;;
18677;SDS011;9469;51.114;13.914;2022-07-23T09:03:12;8.40;;;5.85;;
18677;SDS011;9469;51.114;13.914;2022-07-23T09:08:24;6.25;;;4.80;;
18677;SDS011;9469;51.114;13.914;2022-07-23T09:13:33;5.18;;;4.57;;
18677;SDS011;9469;51.114;13.914;2022-07-23T09:18:41;7.23;;;4.60;;
18677;SDS011;9469;51.114;13.914;2022-07-23T09:23:55;6.82;;;4.78;;
18677;SDS011;9469;51.114;13.914;2022-07-23T09:29:05;5.70;;;4.65;;
18677;SDS011;9469;51.114;13.914;2022-07-23T09:34:12;4.85;;;4.32;;
18677;SDS011;9469;51.114;13.914;2022-07-23T09:39:25;7.47;;;5.40;;
18677;SDS011;9469;51.114;13.914;2022-07-23T09:44:31;5.82;;;5.18;;
18677;SDS011;9469;51.114;13.914;2022-07-23T09:49:57;6.32;;;4.80;;
18677;SDS011;9469;51.114;13.914;2022-07-23T09:55:08;6.25;;;5.45;;
18677;SDS011;9469;51.114;13.914;2022-07-23T10:00:15;8.32;;;5.07;;
18677;SDS011;9469;51.114;13.914;2022-07-23T10:05:21;5.30;;;4.80;;
18677;SDS011;9469;51.114;13.914;2022-07-23T10:10:51;6.82;;;4.78;;
18677;SDS011;9469;51.114;13.914;2022-07-23T10:16:16;6.88;;;5.15;;
18677;SDS011;9469;51.114;13.914;2022-07-23T10:21:34;6.15;;;4.57;;
18677;SDS011;9469;51.114;13.914;2022-07-23T10:26:50;5.65;;;4.93;;
18677;SDS011;9469;51.114;13.914;2022-07-23T10:32:07;9.52;;;5.63;;
18677;SDS011;9469;51.114;13.914;2022-07-23T10:37:22;6.68;;;4.90;;
18677;SDS011;9469;51.114;13.914;2022-07-23T10:42:37;7.28;;;5.63;;
18677;SDS011;9469;51.114;13.914;2022-07-23T10:47:44;6.15;;;5.43;;
18677;SDS011;9469;51.114;13.914;2022-07-23T10:58:20;9.38;;;5.40;;
18677;SDS011;9469;51.114;13.914;2022-07-23T11:03:27;7.25;;;5.40;;
18677;SDS011;9469;51.114;13.914;2022-07-23T11:08:35;6.07;;;5.53;;
18677;SDS011;9469;51.114;13.914;2022-07-23T11:13:49;7.05;;;5.65;;
18677;SDS011;9469;51.114;13.914;2022-07-23T11:18:59;8.20;;;5.22;;
18677;SDS011;9469;51.114;13.914;2022-07-23T11:24:09;6.07;;;5.40;;
18677;SDS011;9469;51.114;13.914;2022-07-23T11:35:01;8.05;;;4.50;;
18677;SDS011;9469;51.114;13.914;2022-07-23T11:40:08;6.20;;;4.97;;
18677;SDS011;9469;51.114;13.914;2022-07-23T11:45:15;5.53;;;4.15;;
18677;SDS011;9469;51.114;13.914;2022-07-23T11:50:23;5.35;;;4.80;;
18677;SDS011;9469;51.114;13.914;2022-07-23T11:55:28;6.00;;;4.85;;
18677;SDS011;9469;51.114;13.914;2022-07-23T12:00:36;6.90;;;4.88;;
18677;SDS011;9469;51.114;13.914;2022-07-23T12:05:48;8.65;;;4.78;;
18677;SDS011;9469;51.114;13.914;2022-07-23T12:10:56;5.10;;;4.68;;
18677;SDS011;9469;51.114;13.914;2022-07-23T12:16:00;5.82;;;4.65;;
18677;SDS011;9469;51.114;13.914;2022-07-23T12:21:09;6.80;;;5.60;;
18677;SDS011;9469;51.114;13.914;2022-07-23T12:26:14;6.78;;;4.97;;
18677;SDS011;9469;51.114;13.914;2022-07-23T12:31:25;5.80;;;4.85;;
18677;SDS011;9469;51.114;13.914;2022-07-23T12:36:38;7.90;;;6.22;;
18677;SDS011;9469;51.114;13.914;2022-07-23T12:41:50;6.38;;;5.78;;
18677;SDS011;9469;51.114;13.914;2022-07-23T12:46:55;7.25;;;5.63;;
18677;SDS011;9469;51.114;13.914;2022-07-23T12:52:03;7.47;;;6.22;;
18677;SDS011;9469;51.114;13.914;2022-07-23T13:02:50;7.65;;;6.97;;
18677;SDS011;9469;51.114;13.914;2022-07-23T13:07:57;6.28;;;5.68;;
18677;SDS011;9469;51.114;13.914;2022-07-23T13:13:07;7.45;;;6.63;;
18677;SDS011;9469;51.114;13.914;2022-07-23T13:18:17;7.18;;;6.00;;
18677;SDS011;9469;51.114;13.914;2022-07-23T13:23:25;6.35;;;5.75;;
18677;SDS011;9469;51.114;13.914;2022-07-23T13:28:31;7.30;;;6.00;;
18677;SDS011;9469;51.114;13.914;2022-07-23T13:33:36;6.57;;;5.93;;
18677;SDS011;9469;51.114;13.914;2022-07-23T13:38:46;6.10;;;5.50;;
18677;SDS011;9469;51.114;13.914;2022-07-23T13:43:52;7.40;;;6.70;;
18677;SDS011;9469;51.114;13.914;2022-07-23T13:48:58;8.63;;;5.68;;
18677;SDS011;9469;51.114;13.914;2022-07-23T13:54:11;7.68;;;5.45;;
18677;SDS011;9469;51.114;13.914;2022-07-23T13:59:16;6.45;;;5.78;;
18677;SDS011;9469;51.114;13.914;2022-07-23T14:04:22;7.72;;;5.53;;
18677;SDS011;9469;51.114;13.914;2022-07-23T14:09:29;6.85;;;5.55;;
18677;SDS011;9469;51.114;13.914;2022-07-23T14:14:35;5.75;;;5.20;;
18677;SDS011;9469;51.114;13.914;2022-07-23T14:19:40;6.38;;;5.72;;
18677;SDS011;9469;51.114;13.914;2022-07-23T14:24:49;5.97;;;5.40;;
18677;SDS011;9469;51.114;13.914;2022-07-23T14:29:55;6.28;;;5.65;;
18677;SDS011;9469;51.114;13.914;2022-07-23T14:35:02;6.75;;;6.07;;
18677;SDS011;9469;51.114;13.914;2022-07-23T14:40:14;7.03;;;6.18;;
18677;SDS011;9469;51.114;13.914;2022-07-23T14:45:20;9.10;;;6.22;;
18677;SDS011;9469;51.114;13.914;2022-07-23T14:50:24;6.28;;;5.68;;
18677;SDS011;9469;51.114;13.914;2022-07-23T14:55:33;6.63;;;6.00;;
18677;SDS011;9469;51.114;13.914;2022-07-23T15:00:38;6.55;;;5.72;;
18677;SDS011;9469;51.114;13.914;2022-07-23T15:05:43;7.32;;;6.40;;
18677;SDS011;9469;51.114;13.914;2022-07-23T15:10:50;6.50;;;5.95;;
18677;SDS011;9469;51.114;13.914;2022-07-23T15:15:55;5.88;;;5.28;;
18677;SDS011;9469;51.114;13.914;2022-07-23T15:21:03;6.45;;;5.85;;
18677;SDS011;9469;51.114;13.914;2022-07-23T15:26:12;6.57;;;5.70;;
18677;SDS011;9469;51.114;13.914;2022-07-23T15:31:20;7.53;;;5.88;;
18677;SDS011;9469;51.114;13.914;2022-07-23T15:36:29;10.40;;;6.32;;
18677;SDS011;9469;51.114;13.914;2022-07-23T15:41:38;7.45;;;6.63;;
18677;SDS011;9469;51.114;13.914;2022-07-23T15:46:44;7.95;;;6.72;;
18677;SDS011;9469;51.114;13.914;2022-07-23T15:51:49;9.05;;;7.72;;
18677;SDS011;9469;51.114;13.914;2022-07-23T15:56:57;10.38;;;7.90;;
18677;SDS011;9469;51.114;13.914;2022-07-23T16:02:07;8.65;;;7.82;;
18677;SDS011;9469;51.114;13.914;2022-07-23T16:07:13;12.98;;;8.88;;
18677;SDS011;9469;51.114;13.914;2022-07-23T16:12:21;9.25;;;8.40;;
18677;SDS011;9469;51.114;13.914;2022-07-23T16:17:26;8.70;;;7.85;;
18677;SDS011;9469;51.114;13.914;2022-07-23T16:22:33;14.57;;;9.40;;
18677;SDS011;9469;51.114;13.914;2022-07-23T16:27:42;10.70;;;7.10;;
18677;SDS011;9469;51.114;13.914;2022-07-23T16:32:46;10.00;;;7.80;;
18677;SDS011;9469;51.114;13.914;2022-07-23T16:37:52;7.57;;;6.63;;
18677;SDS011;9469;51.114;13.914;2022-07-23T16:43:00;8.00;;;7.30;;
18677;SDS011;9469;51.114;13.914;2022-07-23T16:48:05;10.15;;;7.63;;
18677;SDS011;9469;51.114;13.914;2022-07-23T16:53:10;9.02;;;7.32;;
18677;SDS011;9469;51.114;13.914;2022-07-23T16:58:18;10.80;;;7.60;;
18677;SDS011;9469;51.114;13.914;2022-07-23T17:03:23;9.50;;;8.02;;
18677;SDS011;9469;51.114;13.914;2022-07-23T17:08:30;10.40;;;8.35;;
18677;SDS011;9469;51.114;13.914;2022-07-23T17:13:37;10.02;;;7.88;;
18677;SDS011;9469;51.114;13.914;2022-07-23T17:18:43;10.90;;;8.90;;
18677;SDS011;9469;51.114;13.914;2022-07-23T17:23:48;13.27;;;7.90;;
18677;SDS011;9469;51.114;13.914;2022-07-23T17:28:55;9.38;;;7.63;;
18677;SDS011;9469;51.114;13.914;2022-07-23T17:34:01;9.15;;;7.35;;
18677;SDS011;9469;51.114;13.914;2022-07-23T17:39:06;8.02;;;6.50;;
18677;SDS011;9469;51.114;13.914;2022-07-23T17:44:14;7.65;;;6.00;;
18677;SDS011;9469;51.114;13.914;2022-07-23T17:49:20;6.78;;;6.00;;
18677;SDS011;9469;51.114;13.914;2022-07-23T17:54:24;8.07;;;5.80;;
18677;SDS011;9469;51.114;13.914;2022-07-23T17:59:32;6.15;;;5.55;;
18677;SDS011;9469;51.114;13.914;2022-07-23T18:04:39;6.95;;;5.55;;
18677;SDS011;9469;51.114;13.914;2022-07-23T18:09:45;8.23;;;6.35;;
18677;SDS011;9469;51.114;13.914;2022-07-23T18:14:53;7.70;;;6.07;;
18677;SDS011;9469;51.114;13.914;2022-07-23T18:20:04;8.20;;;5.97;;
18677;SDS011;9469;51.114;13.914;2022-07-23T18:25:11;7.13;;;6.23;;
18677;SDS011;9469;51.114;13.914;2022-07-23T18:30:19;10.07;;;6.50;;
18677;SDS011;9469;51.114;13.914;2022-07-23T18:35:28;8.83;;;6.73;;
18677;SDS011;9469;51.114;13.914;2022-07-23T18:40:33;7.55;;;6.75;;
18677;SDS011;9469;51.114;13.914;2022-07-23T18:45:43;7.20;;;6.50;;
18677;SDS011;9469;51.114;13.914;2022-07-23T18:50:48;7.53;;;6.30;;
18677;SDS011;9469;51.114;13.914;2022-07-23T18:55:53;7.53;;;6.60;;
18677;SDS011;9469;51.114;13.914;2022-07-23T19:01:01;7.80;;;7.00;;
18677;SDS011;9469;51.114;13.914;2022-07-23T19:06:06;9.87;;;7.03;;
18677;SDS011;9469;51.114;13.914;2022-07-23T19:11:12;9.00;;;7.00;;
18677;SDS011;9469;51.114;13.914;2022-07-23T19:16:20;8.47;;;6.87;;
18677;SDS011;9469;51.114;13.914;2022-07-23T19:21:25;8.60;;;7.07;;
18677;SDS011;9469;51.114;13.914;2022-07-23T19:26:32;8.57;;;7.30;;
18677;SDS011;9469;51.114;13.914;2022-07-23T19:31:40;9.67;;;7.30;;
18677;SDS011;9469;51.114;13.914;2022-07-23T19:36:45;9.57;;;7.50;;
18677;SDS011;9469;51.114;13.914;2022-07-23T19:41:50;12.90;;;7.77;;
18677;SDS011;9469;51.114;13.914;2022-07-23T19:46:57;11.70;;;7.87;;
18677;SDS011;9469;51.114;13.914;2022-07-23T19:52:03;8.97;;;7.67;;
18677;SDS011;9469;51.114;13.914;2022-07-23T19:57:10;10.17;;;8.67;;
18677;SDS011;9469;51.114;13.914;2022-07-23T20:02:18;9.23;;;8.40;;
18677;SDS011;9469;51.114;13.914;2022-07-23T20:07:23;12.73;;;8.63;;
18677;SDS011;9469;51.114;13.914;2022-07-23T20:12:30;8.87;;;7.97;;
18677;SDS011;9469;51.114;13.914;2022-07-23T20:17:37;12.97;;;10.03;;
18677;SDS011;9469;51.114;13.914;2022-07-23T20:22:43;11.17;;;8.83;;
18677;SDS011;9469;51.114;13.914;2022-07-23T20:27:48;13.57;;;9.30;;
18677;SDS011;9469;51.114;13.914;2022-07-23T20:32:55;10.37;;;8.97;;
18677;SDS011;9469;51.114;13.914;2022-07-23T20:38:00;10.47;;;8.83;;
18677;SDS011;9469;51.114;13.914;2022-07-23T20:43:05;12.33;;;9.93;;
18677;SDS011;9469;51.114;13.914;2022-07-23T20:48:13;17.87;;;13.30;;
18677;SDS011;9469;51.114;13.914;2022-07-23T20:53:27;17.00;;;13.70;;
18677;SDS011;9469;51.114;13.914;2022-07-23T20:58:32;13.57;;;12.17;;
18677;SDS011;9469;51.114;13.914;2022-07-23T21:03:39;17.67;;;11.97;;
18677;SDS011;9469;51.114;13.914;2022-07-23T21:08:44;18.20;;;12.50;;
18677;SDS011;9469;51.114;13.914;2022-07-23T21:13:49;12.17;;;10.17;;
18677;SDS011;9469;51.114;13.914;2022-07-23T21:18:57;13.13;;;10.93;;
18677;SDS011;9469;51.114;13.914;2022-07-23T21:24:03;14.53;;;11.77;;
18677;SDS011;9469;51.114;13.914;2022-07-23T21:29:09;16.27;;;12.27;;
18677;SDS011;9469;51.114;13.914;2022-07-23T21:34:16;16.10;;;12.60;;
18677;SDS011;9469;51.114;13.914;2022-07-23T21:39:21;13.47;;;11.83;;
18677;SDS011;9469;51.114;13.914;2022-07-23T21:44:26;16.10;;;11.63;;
18677;SDS011;9469;51.114;13.914;2022-07-23T21:49:35;13.43;;;11.83;;
18677;SDS011;9469;51.114;13.914;2022-07-23T21:54:39;14.27;;;12.00;;
18677;SDS011;9469;51.114;13.914;2022-07-23T21:59:44;15.50;;;12.27;;
18677;SDS011;9469;51.114;13.914;2022-07-23T22:04:54;15.70;;;11.73;;
18677;SDS011;9469;51.114;13.914;2022-07-23T22:09:59;14.40;;;12.33;;
18677;SDS011;9469;51.114;13.914;2022-07-23T22:15:05;14.00;;;11.60;;
18677;SDS011;9469;51.114;13.914;2022-07-23T22:20:14;17.43;;;11.27;;
18677;SDS011;9469;51.114;13.914;2022-07-23T22:25:21;14.87;;;11.70;;
18677;SDS011;9469;51.114;13.914;2022-07-23T22:30:27;21.50;;;12.60;;
18677;SDS011;9469;51.114;13.914;2022-07-23T22:35:34;15.33;;;13.00;;
18677;SDS011;9469;51.114;13.914;2022-07-23T22:40:40;17.33;;;14.77;;
18677;SDS011;9469;51.114;13.914;2022-07-23T22:45:45;15.40;;;13.77;;
18677;SDS011;9469;51.114;13.914;2022-07-23T22:50:53;16.10;;;13.60;;
18677;SDS011;9469;51.114;13.914;2022-07-23T22:55:59;17.33;;;13.83;;
18677;SDS011;9469;51.114;13.914;2022-07-23T23:01:04;13.63;;;12.00;;
18677;SDS011;9469;51.114;13.914;2022-07-23T23:06:12;14.90;;;13.37;;
18677;SDS011;9469;51.114;13.914;2022-07-23T23:11:17;15.10;;;13.53;;
18677;SDS011;9469;51.114;13.914;2022-07-23T23:16:22;16.03;;;14.10;;
18677;SDS011;9469;51.114;13.914;2022-07-23T23:21:30;17.97;;;14.47;;
18677;SDS011;9469;51.114;13.914;2022-07-23T23:26:35;19.00;;;14.40;;
18677;SDS011;9469;51.114;13.914;2022-07-23T23:31:40;14.50;;;13.13;;
18677;SDS011;9469;51.114;13.914;2022-07-23T23:36:47;14.97;;;13.07;;
18677;SDS011;9469;51.114;13.914;2022-07-23T23:41:53;16.03;;;14.33;;
18677;SDS011;9469;51.114;13.914;2022-07-23T23:46:58;15.63;;;14.03;;
18677;SDS011;9469;51.114;13.914;2022-07-23T23:52:05;16.00;;;14.17;;
18677;SDS011;9469;51.114;13.914;2022-07-23T23:57:10;15.87;;;14.17;;
